createdAt,value
2017-11-14T00:00:11.581Z,1015.84
2017-11-14T00:00:37.698Z,1015.91
2017-11-14T00:01:03.816Z,1015.86
2017-11-14T00:01:29.941Z,1015.88
2017-11-14T00:01:56.066Z,1015.88
2017-11-14T00:02:22.179Z,1015.85
2017-11-14T00:02:48.295Z,1015.87
2017-11-14T00:03:14.422Z,1015.83
2017-11-14T00:03:40.544Z,1015.85
2017-11-14T00:04:06.656Z,1015.85
2017-11-14T00:04:32.794Z,1015.83
2017-11-14T00:04:58.916Z,1015.85
2017-11-14T00:05:25.065Z,1015.81
2017-11-14T00:05:51.153Z,1015.81
2017-11-14T00:06:17.280Z,1015.86
2017-11-14T00:06:43.396Z,1015.82
2017-11-14T00:07:09.524Z,1015.84
2017-11-14T00:07:35.645Z,1015.83
2017-11-14T00:08:01.758Z,1015.82
2017-11-14T00:08:27.877Z,1015.82
2017-11-14T00:08:53.996Z,1015.81
2017-11-14T00:09:20.116Z,1015.82
2017-11-14T00:09:46.232Z,1015.84
2017-11-14T00:10:12.352Z,1015.88
2017-11-14T00:10:38.479Z,1015.86
2017-11-14T00:11:04.596Z,1015.82
2017-11-14T00:11:30.728Z,1015.83
2017-11-14T00:11:56.850Z,1015.82
2017-11-14T00:12:22.975Z,1015.81
2017-11-14T00:12:49.089Z,1015.86
2017-11-14T00:13:15.205Z,1015.8
2017-11-14T00:13:41.330Z,1015.8
2017-11-14T00:14:07.450Z,1015.88
2017-11-14T00:14:33.578Z,1015.84
2017-11-14T00:14:59.694Z,1015.84
2017-11-14T00:15:25.818Z,1015.86
2017-11-14T00:15:51.939Z,1015.84
2017-11-14T00:16:18.097Z,1015.83
2017-11-14T00:16:44.213Z,1015.83
2017-11-14T00:17:10.337Z,1015.82
2017-11-14T00:17:36.460Z,1015.86
2017-11-14T00:18:02.578Z,1015.86
2017-11-14T00:18:28.697Z,1015.84
2017-11-14T00:18:54.815Z,1015.84
2017-11-14T00:19:20.965Z,1015.87
2017-11-14T00:19:47.076Z,1015.85
2017-11-14T00:20:13.217Z,1015.83
2017-11-14T00:20:39.342Z,1015.87
2017-11-14T00:21:05.465Z,1015.82
2017-11-14T00:21:31.579Z,1015.85
2017-11-14T00:21:57.703Z,1015.85
2017-11-14T00:22:23.821Z,1015.86
2017-11-14T00:22:49.942Z,1015.88
2017-11-14T00:23:16.056Z,1015.87
2017-11-14T00:23:42.179Z,1015.84
2017-11-14T00:24:08.295Z,1015.85
2017-11-14T00:24:34.415Z,1015.85
2017-11-14T00:25:00.540Z,1015.84
2017-11-14T00:25:26.656Z,1015.84
2017-11-14T00:25:52.795Z,1015.87
2017-11-14T00:26:18.914Z,1015.91
2017-11-14T00:26:45.033Z,1015.87
2017-11-14T00:27:11.149Z,1015.86
2017-11-14T00:27:37.280Z,1015.85
2017-11-14T00:28:03.397Z,1015.86
2017-11-14T00:28:29.524Z,1015.88
2017-11-14T00:28:55.634Z,1015.84
2017-11-14T00:29:21.753Z,1015.86
2017-11-14T00:29:47.877Z,1015.88
2017-11-14T00:30:13.992Z,1015.88
2017-11-14T00:30:40.177Z,1015.83
2017-11-14T00:31:06.293Z,1015.86
2017-11-14T00:31:32.420Z,1015.87
2017-11-14T00:31:58.555Z,1015.87
2017-11-14T00:32:24.669Z,1015.85
2017-11-14T00:32:50.784Z,1015.87
2017-11-14T00:33:16.903Z,1015.88
2017-11-14T00:33:43.022Z,1015.88
2017-11-14T00:34:09.144Z,1015.9
2017-11-14T00:34:35.259Z,1015.88
2017-11-14T00:35:01.387Z,1015.88
2017-11-14T00:35:27.501Z,1015.88
2017-11-14T00:35:53.623Z,1015.91
2017-11-14T00:36:19.741Z,1015.86
2017-11-14T00:36:45.861Z,1015.82
2017-11-14T00:37:11.984Z,1015.9
2017-11-14T00:37:38.108Z,1015.86
2017-11-14T00:38:04.225Z,1015.88
2017-11-14T00:38:30.341Z,1015.86
2017-11-14T00:38:56.464Z,1015.86
2017-11-14T00:39:22.581Z,1015.87
2017-11-14T00:39:48.706Z,1015.85
2017-11-14T00:40:14.821Z,1015.84
2017-11-14T00:40:40.943Z,1015.89
2017-11-14T00:41:07.067Z,1015.85
2017-11-14T00:41:33.183Z,1015.84
2017-11-14T00:41:59.303Z,1015.85
2017-11-14T00:42:25.426Z,1015.9
2017-11-14T00:42:51.555Z,1015.87
2017-11-14T00:43:17.663Z,1015.92
2017-11-14T00:43:43.789Z,1015.89
2017-11-14T00:44:09.907Z,1015.93
2017-11-14T00:44:36.025Z,1015.91
2017-11-14T00:45:02.149Z,1015.91
2017-11-14T00:45:28.268Z,1015.92
2017-11-14T00:45:54.382Z,1015.92
2017-11-14T00:46:20.503Z,1015.91
2017-11-14T00:46:46.628Z,1015.92
2017-11-14T00:47:12.744Z,1015.9
2017-11-14T00:47:38.863Z,1015.94
2017-11-14T00:48:04.988Z,1015.96
2017-11-14T00:48:31.104Z,1015.94
2017-11-14T00:48:57.229Z,1015.95
2017-11-14T00:49:23.346Z,1015.97
2017-11-14T00:49:49.466Z,1015.97
2017-11-14T00:50:15.582Z,1015.96
2017-11-14T00:50:41.700Z,1015.99
2017-11-14T00:51:07.822Z,1015.96
2017-11-14T00:51:33.952Z,1015.97
2017-11-14T00:52:00.108Z,1015.94
2017-11-14T00:52:26.185Z,1015.98
2017-11-14T00:52:52.298Z,1015.98
2017-11-14T00:53:18.422Z,1015.99
2017-11-14T00:53:44.538Z,1015.98
2017-11-14T00:54:10.656Z,1015.98
2017-11-14T00:54:36.769Z,1016
2017-11-14T00:55:02.898Z,1015.98
2017-11-14T00:55:29.008Z,1016.01
2017-11-14T00:55:55.132Z,1015.99
2017-11-14T00:56:21.252Z,1016
2017-11-14T00:56:47.363Z,1016.02
2017-11-14T00:57:13.487Z,1016.03
2017-11-14T00:57:39.605Z,1016.06
2017-11-14T00:58:05.729Z,1016.05
2017-11-14T00:58:31.856Z,1016.04
2017-11-14T00:58:57.981Z,1016.04
2017-11-14T00:59:24.098Z,1016.03
2017-11-14T00:59:50.221Z,1016.04
2017-11-14T01:00:16.337Z,1016.01
2017-11-14T01:00:42.468Z,1016.06
2017-11-14T01:01:08.583Z,1016.04
2017-11-14T01:01:34.717Z,1016.06
2017-11-14T01:02:00.838Z,1016.02
2017-11-14T01:02:26.964Z,1016.04
2017-11-14T01:02:53.084Z,1016.03
2017-11-14T01:03:19.197Z,1016.04
2017-11-14T01:03:45.320Z,1016.06
2017-11-14T01:04:11.436Z,1016.08
2017-11-14T01:04:37.561Z,1016.08
2017-11-14T01:05:03.679Z,1016.08
2017-11-14T01:05:29.800Z,1016.1
2017-11-14T01:05:55.914Z,1016.09
2017-11-14T01:06:22.039Z,1016.1
2017-11-14T01:06:48.154Z,1016.1
2017-11-14T01:07:14.273Z,1016.14
2017-11-14T01:07:40.397Z,1016.12
2017-11-14T01:08:06.516Z,1016.09
2017-11-14T01:08:32.635Z,1016.14
2017-11-14T01:08:58.757Z,1016.12
2017-11-14T01:09:24.873Z,1016.11
2017-11-14T01:09:50.997Z,1016.13
2017-11-14T01:10:17.112Z,1016.13
2017-11-14T01:10:43.239Z,1016.14
2017-11-14T01:11:09.357Z,1016.12
2017-11-14T01:11:35.506Z,1016.07
2017-11-14T01:12:01.626Z,1016.12
2017-11-14T01:12:27.739Z,1016.1
2017-11-14T01:12:53.884Z,1016.13
2017-11-14T01:13:20.002Z,1016.1
2017-11-14T01:13:46.122Z,1016.12
2017-11-14T01:14:12.239Z,1016.11
2017-11-14T01:14:38.381Z,1016.08
2017-11-14T01:15:04.498Z,1016.11
2017-11-14T01:15:30.627Z,1016.09
2017-11-14T01:15:56.735Z,1016.09
2017-11-14T01:16:22.887Z,1016.09
2017-11-14T01:16:49.022Z,1016.09
2017-11-14T01:17:15.148Z,1016.06
2017-11-14T01:17:41.291Z,1016.06
2017-11-14T01:18:07.430Z,1016.07
2017-11-14T01:18:33.559Z,1016.06
2017-11-14T01:18:59.672Z,1016.05
2017-11-14T01:19:25.799Z,1016.03
2017-11-14T01:19:51.913Z,1016.04
2017-11-14T01:20:18.033Z,1016.05
2017-11-14T01:20:44.150Z,1016.05
2017-11-14T01:21:10.269Z,1016.03
2017-11-14T01:21:36.395Z,1016.02
2017-11-14T01:22:02.516Z,1016.02
2017-11-14T01:22:28.634Z,1016.03
2017-11-14T01:22:54.756Z,1016.04
2017-11-14T01:23:20.871Z,1016.07
2017-11-14T01:23:46.997Z,1016.09
2017-11-14T01:24:13.110Z,1016.05
2017-11-14T01:24:39.228Z,1016.09
2017-11-14T01:25:05.351Z,1016.06
2017-11-14T01:25:31.479Z,1016.06
2017-11-14T01:25:57.590Z,1016.09
2017-11-14T01:26:23.728Z,1016.08
2017-11-14T01:26:49.854Z,1016.07
2017-11-14T01:27:15.978Z,1016.07
2017-11-14T01:27:42.093Z,1016.08
2017-11-14T01:28:08.213Z,1016.11
2017-11-14T01:28:34.334Z,1016.09
2017-11-14T01:29:00.460Z,1016.1
2017-11-14T01:29:26.581Z,1016.13
2017-11-14T01:29:52.701Z,1016.16
2017-11-14T01:30:18.820Z,1016.15
2017-11-14T01:30:44.932Z,1016.13
2017-11-14T01:31:11.055Z,1016.15
2017-11-14T01:31:37.171Z,1016.16
2017-11-14T01:32:03.295Z,1016.12
2017-11-14T01:32:29.441Z,1016.14
2017-11-14T01:32:55.561Z,1016.12
2017-11-14T01:33:21.680Z,1016.16
2017-11-14T01:33:47.795Z,1016.14
2017-11-14T01:34:13.913Z,1016.14
2017-11-14T01:34:40.047Z,1016.15
2017-11-14T01:35:06.164Z,1016.19
2017-11-14T01:35:32.290Z,1016.18
2017-11-14T01:35:58.421Z,1016.19
2017-11-14T01:36:24.536Z,1016.12
2017-11-14T01:36:50.681Z,1016.15
2017-11-14T01:37:16.797Z,1016.15
2017-11-14T01:37:42.926Z,1016.14
2017-11-14T01:38:09.040Z,1016.18
2017-11-14T01:38:35.159Z,1016.13
2017-11-14T01:39:01.280Z,1016.13
2017-11-14T01:39:27.400Z,1016.17
2017-11-14T01:39:53.531Z,1016.14
2017-11-14T01:40:19.647Z,1016.14
2017-11-14T01:40:45.773Z,1016.16
2017-11-14T01:41:11.896Z,1016.15
2017-11-14T01:41:38.014Z,1016.18
2017-11-14T01:42:04.135Z,1016.14
2017-11-14T01:42:30.246Z,1016.15
2017-11-14T01:42:56.372Z,1016.13
2017-11-14T01:43:22.493Z,1016.15
2017-11-14T01:43:48.610Z,1016.16
2017-11-14T01:44:14.734Z,1016.15
2017-11-14T01:44:40.850Z,1016.13
2017-11-14T01:45:06.974Z,1016.12
2017-11-14T01:45:33.091Z,1016.15
2017-11-14T01:45:59.217Z,1016.17
2017-11-14T01:46:25.341Z,1016.12
2017-11-14T01:46:51.459Z,1016.13
2017-11-14T01:47:17.573Z,1016.14
2017-11-14T01:47:43.695Z,1016.12
2017-11-14T01:48:09.819Z,1016.09
2017-11-14T01:48:35.936Z,1016.12
2017-11-14T01:49:02.060Z,1016.12
2017-11-14T01:49:28.176Z,1016.14
2017-11-14T01:49:54.331Z,1016.16
2017-11-14T01:50:20.418Z,1016.14
2017-11-14T01:50:46.542Z,1016.13
2017-11-14T01:51:12.688Z,1016.13
2017-11-14T01:51:38.854Z,1016.15
2017-11-14T01:52:05.002Z,1016.12
2017-11-14T01:52:31.145Z,1016.14
2017-11-14T01:52:57.296Z,1016.11
2017-11-14T01:53:23.432Z,1016.12
2017-11-14T01:53:49.580Z,1016.11
2017-11-14T01:54:15.715Z,1016.12
2017-11-14T01:54:41.858Z,1016.1
2017-11-14T01:55:08.002Z,1016.16
2017-11-14T01:55:34.153Z,1016.16
2017-11-14T01:56:00.295Z,1016.17
2017-11-14T01:56:26.436Z,1016.17
2017-11-14T01:56:52.582Z,1016.19
2017-11-14T01:57:18.725Z,1016.16
2017-11-14T01:57:44.861Z,1016.17
2017-11-14T01:58:11.009Z,1016.16
2017-11-14T01:58:37.147Z,1016.13
2017-11-14T01:59:03.292Z,1016.15
2017-11-14T01:59:29.437Z,1016.18
2017-11-14T01:59:55.580Z,1016.19
2017-11-14T02:00:21.720Z,1016.15
2017-11-14T02:00:47.865Z,1016.16
2017-11-14T02:01:14.004Z,1016.14
2017-11-14T02:01:40.151Z,1016.14
2017-11-14T02:02:06.329Z,1016.14
2017-11-14T02:02:32.466Z,1016.12
2017-11-14T02:02:58.641Z,1016.13
2017-11-14T02:03:24.781Z,1016.11
2017-11-14T02:03:50.931Z,1016.14
2017-11-14T02:04:17.065Z,1016.16
2017-11-14T02:04:43.213Z,1016.14
2017-11-14T02:05:09.373Z,1016.15
2017-11-14T02:05:35.518Z,1016.13
2017-11-14T02:06:01.667Z,1016.12
2017-11-14T02:06:27.802Z,1016.12
2017-11-14T02:06:53.948Z,1016.13
2017-11-14T02:07:20.096Z,1016.1
2017-11-14T02:07:46.238Z,1016.08
2017-11-14T02:08:12.380Z,1016.04
2017-11-14T02:08:38.521Z,1016.09
2017-11-14T02:09:04.672Z,1016.03
2017-11-14T02:09:30.807Z,1016.03
2017-11-14T02:09:56.979Z,1016.07
2017-11-14T02:10:23.133Z,1016.09
2017-11-14T02:10:49.256Z,1016
2017-11-14T02:11:15.437Z,1016.06
2017-11-14T02:11:41.580Z,1016.02
2017-11-14T02:12:07.727Z,1016.08
2017-11-14T02:12:33.861Z,1016.11
2017-11-14T02:13:00.015Z,1016.08
2017-11-14T02:13:26.161Z,1016.1
2017-11-14T02:13:52.299Z,1016.08
2017-11-14T02:14:18.464Z,1016.14
2017-11-14T02:14:44.632Z,1016.1
2017-11-14T02:15:10.779Z,1016.13
2017-11-14T02:15:36.925Z,1016.13
2017-11-14T02:16:03.068Z,1016.13
2017-11-14T02:16:29.236Z,1016.13
2017-11-14T02:16:55.375Z,1016.09
2017-11-14T02:17:21.522Z,1016.12
2017-11-14T02:17:47.667Z,1016.13
2017-11-14T02:18:13.808Z,1016.14
2017-11-14T02:18:39.956Z,1016.13
2017-11-14T02:19:06.096Z,1016.11
2017-11-14T02:19:32.240Z,1016.11
2017-11-14T02:19:58.394Z,1016.11
2017-11-14T02:20:24.525Z,1016.07
2017-11-14T02:20:50.675Z,1016.13
2017-11-14T02:21:16.818Z,1016.12
2017-11-14T02:21:42.962Z,1016.1
2017-11-14T02:22:09.111Z,1016.08
2017-11-14T02:22:35.252Z,1016.12
2017-11-14T02:23:01.397Z,1016.09
2017-11-14T02:23:27.535Z,1016.09
2017-11-14T02:23:53.687Z,1016.1
2017-11-14T02:24:19.823Z,1016.1
2017-11-14T02:24:45.966Z,1016.13
2017-11-14T02:25:12.113Z,1016.06
2017-11-14T02:25:38.251Z,1016.08
2017-11-14T02:26:04.398Z,1016.06
2017-11-14T02:26:30.536Z,1016.04
2017-11-14T02:26:56.674Z,1016.09
2017-11-14T02:27:22.822Z,1016.1
2017-11-14T02:27:48.960Z,1016.1
2017-11-14T02:28:15.098Z,1016.12
2017-11-14T02:28:41.245Z,1016.15
2017-11-14T02:29:07.384Z,1016.13
2017-11-14T02:29:33.533Z,1016.13
2017-11-14T02:29:59.680Z,1016.11
2017-11-14T02:30:25.869Z,1016.11
2017-11-14T02:30:52.016Z,1016.16
2017-11-14T02:31:18.159Z,1016.15
2017-11-14T02:31:44.353Z,1016.12
2017-11-14T02:32:10.497Z,1016.18
2017-11-14T02:32:36.633Z,1016.15
2017-11-14T02:33:02.789Z,1016.13
2017-11-14T02:33:28.936Z,1016.11
2017-11-14T02:33:55.072Z,1016.12
2017-11-14T02:34:21.221Z,1016.16
2017-11-14T02:34:47.360Z,1016.13
2017-11-14T02:35:13.507Z,1016.12
2017-11-14T02:35:39.642Z,1016.15
2017-11-14T02:36:05.796Z,1016.1
2017-11-14T02:36:31.958Z,1016.12
2017-11-14T02:36:58.109Z,1016.09
2017-11-14T02:37:24.243Z,1016.09
2017-11-14T02:37:50.387Z,1016.14
2017-11-14T02:38:16.561Z,1016.1
2017-11-14T02:38:42.699Z,1016.1
2017-11-14T02:39:08.873Z,1016.12
2017-11-14T02:39:35.013Z,1016.15
2017-11-14T02:40:01.161Z,1016.11
2017-11-14T02:40:27.327Z,1016.15
2017-11-14T02:40:53.468Z,1016.09
2017-11-14T02:41:19.608Z,1016.13
2017-11-14T02:41:45.749Z,1016.11
2017-11-14T02:42:11.893Z,1016.1
2017-11-14T02:42:38.029Z,1016.15
2017-11-14T02:43:04.170Z,1016.15
2017-11-14T02:43:30.324Z,1016.12
2017-11-14T02:43:56.470Z,1016.15
2017-11-14T02:44:22.622Z,1016.12
2017-11-14T02:44:48.782Z,1016.14
2017-11-14T02:45:14.932Z,1016.15
2017-11-14T02:45:41.064Z,1016.15
2017-11-14T02:46:07.208Z,1016.16
2017-11-14T02:46:33.347Z,1016.18
2017-11-14T02:46:59.496Z,1016.19
2017-11-14T02:47:25.634Z,1016.15
2017-11-14T02:47:51.774Z,1016.19
2017-11-14T02:48:17.914Z,1016.17
2017-11-14T02:48:44.065Z,1016.17
2017-11-14T02:49:10.211Z,1016.13
2017-11-14T02:49:36.356Z,1016.21
2017-11-14T02:50:02.534Z,1016.19
2017-11-14T02:50:28.677Z,1016.16
2017-11-14T02:50:54.816Z,1016.16
2017-11-14T02:51:20.955Z,1016.13
2017-11-14T02:51:47.095Z,1016.17
2017-11-14T02:52:13.244Z,1016.17
2017-11-14T02:52:39.380Z,1016.13
2017-11-14T02:53:05.529Z,1016.14
2017-11-14T02:53:31.673Z,1016.14
2017-11-14T02:53:57.817Z,1016.16
2017-11-14T02:54:23.986Z,1016.14
2017-11-14T02:54:50.124Z,1016.12
2017-11-14T02:55:16.266Z,1016.15
2017-11-14T02:55:42.412Z,1016.12
2017-11-14T02:56:08.560Z,1016.15
2017-11-14T02:56:34.722Z,1016.15
2017-11-14T02:57:00.862Z,1016.14
2017-11-14T02:57:27.010Z,1016.15
2017-11-14T02:57:53.158Z,1016.11
2017-11-14T02:58:19.292Z,1016.11
2017-11-14T02:58:45.436Z,1016.11
2017-11-14T02:59:11.582Z,1016.11
2017-11-14T02:59:37.754Z,1016.11
2017-11-14T03:00:03.890Z,1016.08
2017-11-14T03:00:30.039Z,1016.11
2017-11-14T03:00:56.205Z,1016.12
2017-11-14T03:01:22.351Z,1016.12
2017-11-14T03:01:48.521Z,1016.13
2017-11-14T03:02:14.664Z,1016.11
2017-11-14T03:02:40.810Z,1016.1
2017-11-14T03:03:06.957Z,1016.08
2017-11-14T03:03:33.101Z,1016.12
2017-11-14T03:03:59.242Z,1016.1
2017-11-14T03:04:25.389Z,1016.08
2017-11-14T03:04:51.529Z,1016.1
2017-11-14T03:05:17.679Z,1016.1
2017-11-14T03:05:43.818Z,1016.09
2017-11-14T03:06:09.964Z,1016.01
2017-11-14T03:06:36.130Z,1016.07
2017-11-14T03:07:02.282Z,1016.04
2017-11-14T03:07:28.411Z,1016.05
2017-11-14T03:07:54.552Z,1016.1
2017-11-14T03:08:20.702Z,1016.09
2017-11-14T03:08:46.849Z,1016.05
2017-11-14T03:09:12.987Z,1016.08
2017-11-14T03:09:39.133Z,1016.07
2017-11-14T03:10:05.275Z,1016.07
2017-11-14T03:10:31.422Z,1016.06
2017-11-14T03:10:57.571Z,1016.1
2017-11-14T03:11:23.708Z,1016.09
2017-11-14T03:11:49.876Z,1016.06
2017-11-14T03:12:16.023Z,1016.03
2017-11-14T03:12:42.162Z,1016.1
2017-11-14T03:13:08.305Z,1016.1
2017-11-14T03:13:34.449Z,1016.08
2017-11-14T03:14:00.590Z,1016.08
2017-11-14T03:14:26.739Z,1016.09
2017-11-14T03:14:52.880Z,1016.09
2017-11-14T03:15:19.034Z,1016.16
2017-11-14T03:15:45.173Z,1016.12
2017-11-14T03:16:11.310Z,1016.12
2017-11-14T03:16:37.491Z,1016.14
2017-11-14T03:17:03.633Z,1016.19
2017-11-14T03:17:29.775Z,1016.12
2017-11-14T03:17:55.921Z,1016.15
2017-11-14T03:18:22.093Z,1016.18
2017-11-14T03:18:48.237Z,1016.18
2017-11-14T03:19:14.374Z,1016.16
2017-11-14T03:19:40.524Z,1016.2
2017-11-14T03:20:06.660Z,1016.17
2017-11-14T03:20:32.810Z,1016.12
2017-11-14T03:20:58.944Z,1016.18
2017-11-14T03:21:25.086Z,1016.17
2017-11-14T03:21:51.234Z,1016.17
2017-11-14T03:22:17.380Z,1016.19
2017-11-14T03:22:43.519Z,1016.16
2017-11-14T03:23:09.662Z,1016.21
2017-11-14T03:23:35.808Z,1016.19
2017-11-14T03:24:01.946Z,1016.2
2017-11-14T03:24:28.091Z,1016.2
2017-11-14T03:24:54.233Z,1016.18
2017-11-14T03:25:20.409Z,1016.2
2017-11-14T03:25:46.572Z,1016.23
2017-11-14T03:26:12.715Z,1016.22
2017-11-14T03:26:38.861Z,1016.26
2017-11-14T03:27:05.006Z,1016.25
2017-11-14T03:27:31.176Z,1016.23
2017-11-14T03:27:57.322Z,1016.23
2017-11-14T03:28:23.463Z,1016.24
2017-11-14T03:28:49.614Z,1016.21
2017-11-14T03:29:15.761Z,1016.23
2017-11-14T03:29:41.898Z,1016.22
2017-11-14T03:30:08.068Z,1016.19
2017-11-14T03:30:34.209Z,1016.18
2017-11-14T03:31:00.353Z,1016.21
2017-11-14T03:31:26.494Z,1016.2
2017-11-14T03:31:52.629Z,1016.21
2017-11-14T03:32:18.785Z,1016.22
2017-11-14T03:32:44.924Z,1016.22
2017-11-14T03:33:11.064Z,1016.19
2017-11-14T03:33:37.205Z,1016.16
2017-11-14T03:34:03.345Z,1016.16
2017-11-14T03:34:29.492Z,1016.18
2017-11-14T03:34:55.636Z,1016.19
2017-11-14T03:35:21.794Z,1016.19
2017-11-14T03:35:47.928Z,1016.18
2017-11-14T03:36:14.073Z,1016.16
2017-11-14T03:36:40.230Z,1016.2
2017-11-14T03:37:06.353Z,1016.18
2017-11-14T03:37:32.496Z,1016.19
2017-11-14T03:37:58.637Z,1016.2
2017-11-14T03:38:24.781Z,1016.19
2017-11-14T03:38:50.952Z,1016.17
2017-11-14T03:39:17.089Z,1016.15
2017-11-14T03:39:43.241Z,1016.17
2017-11-14T03:40:09.378Z,1016.16
2017-11-14T03:40:35.521Z,1016.18
2017-11-14T03:41:01.669Z,1016.19
2017-11-14T03:41:27.814Z,1016.18
2017-11-14T03:41:53.954Z,1016.15
2017-11-14T03:42:20.093Z,1016.15
2017-11-14T03:42:46.238Z,1016.21
2017-11-14T03:43:12.381Z,1016.19
2017-11-14T03:43:38.519Z,1016.2
2017-11-14T03:44:04.663Z,1016.22
2017-11-14T03:44:30.812Z,1016.19
2017-11-14T03:44:56.955Z,1016.17
2017-11-14T03:45:23.094Z,1016.17
2017-11-14T03:45:49.242Z,1016.16
2017-11-14T03:46:15.380Z,1016.17
2017-11-14T03:46:41.529Z,1016.13
2017-11-14T03:47:07.678Z,1016.2
2017-11-14T03:47:33.812Z,1016.21
2017-11-14T03:47:59.953Z,1016.15
2017-11-14T03:48:26.101Z,1016.18
2017-11-14T03:48:52.245Z,1016.2
2017-11-14T03:49:18.385Z,1016.21
2017-11-14T03:49:44.535Z,1016.19
2017-11-14T03:50:10.694Z,1016.2
2017-11-14T03:50:36.867Z,1016.18
2017-11-14T03:51:02.997Z,1016.22
2017-11-14T03:51:29.145Z,1016.23
2017-11-14T03:51:55.293Z,1016.22
2017-11-14T03:52:21.433Z,1016.27
2017-11-14T03:52:47.587Z,1016.27
2017-11-14T03:53:13.723Z,1016.29
2017-11-14T03:53:39.872Z,1016.3
2017-11-14T03:54:06.016Z,1016.3
2017-11-14T03:54:32.157Z,1016.3
2017-11-14T03:54:58.301Z,1016.31
2017-11-14T03:55:24.446Z,1016.35
2017-11-14T03:55:50.587Z,1016.3
2017-11-14T03:56:16.731Z,1016.34
2017-11-14T03:56:42.871Z,1016.32
2017-11-14T03:57:09.009Z,1016.32
2017-11-14T03:57:35.158Z,1016.31
2017-11-14T03:58:01.299Z,1016.37
2017-11-14T03:58:27.439Z,1016.35
2017-11-14T03:58:53.588Z,1016.33
2017-11-14T03:59:19.727Z,1016.31
2017-11-14T03:59:45.870Z,1016.32
2017-11-14T04:00:12.016Z,1016.31
2017-11-14T04:00:38.183Z,1016.3
2017-11-14T04:01:04.320Z,1016.31
2017-11-14T04:01:30.460Z,1016.31
2017-11-14T04:01:56.607Z,1016.34
2017-11-14T04:02:22.748Z,1016.3
2017-11-14T04:02:48.894Z,1016.31
2017-11-14T04:03:15.033Z,1016.33
2017-11-14T04:03:41.180Z,1016.29
2017-11-14T04:04:07.324Z,1016.31
2017-11-14T04:04:33.490Z,1016.28
2017-11-14T04:04:59.638Z,1016.29
2017-11-14T04:05:25.805Z,1016.26
2017-11-14T04:05:51.949Z,1016.28
2017-11-14T04:06:18.092Z,1016.33
2017-11-14T04:06:44.228Z,1016.27
2017-11-14T04:07:10.381Z,1016.3
2017-11-14T04:07:36.522Z,1016.29
2017-11-14T04:08:02.687Z,1016.25
2017-11-14T04:08:28.827Z,1016.3
2017-11-14T04:08:54.970Z,1016.25
2017-11-14T04:09:21.123Z,1016.31
2017-11-14T04:09:47.251Z,1016.32
2017-11-14T04:10:13.391Z,1016.28
2017-11-14T04:10:39.537Z,1016.3
2017-11-14T04:11:05.681Z,1016.31
2017-11-14T04:11:31.828Z,1016.31
2017-11-14T04:11:57.967Z,1016.34
2017-11-14T04:12:24.111Z,1016.36
2017-11-14T04:12:50.254Z,1016.36
2017-11-14T04:13:16.409Z,1016.42
2017-11-14T04:13:42.550Z,1016.38
2017-11-14T04:14:08.697Z,1016.42
2017-11-14T04:14:34.839Z,1016.4
2017-11-14T04:15:00.984Z,1016.44
2017-11-14T04:15:27.128Z,1016.43
2017-11-14T04:15:53.268Z,1016.46
2017-11-14T04:16:19.409Z,1016.46
2017-11-14T04:16:45.550Z,1016.46
2017-11-14T04:17:11.696Z,1016.48
2017-11-14T04:17:37.840Z,1016.45
2017-11-14T04:18:03.980Z,1016.45
2017-11-14T04:18:30.129Z,1016.51
2017-11-14T04:18:56.264Z,1016.5
2017-11-14T04:19:22.409Z,1016.49
2017-11-14T04:19:48.548Z,1016.51
2017-11-14T04:20:14.698Z,1016.53
2017-11-14T04:20:40.838Z,1016.55
2017-11-14T04:21:06.985Z,1016.54
2017-11-14T04:21:33.133Z,1016.53
2017-11-14T04:21:59.267Z,1016.53
2017-11-14T04:22:25.408Z,1016.54
2017-11-14T04:22:51.558Z,1016.53
2017-11-14T04:23:17.704Z,1016.58
2017-11-14T04:23:43.864Z,1016.54
2017-11-14T04:24:10.014Z,1016.54
2017-11-14T04:24:36.150Z,1016.54
2017-11-14T04:25:02.298Z,1016.57
2017-11-14T04:25:28.434Z,1016.53
2017-11-14T04:25:54.577Z,1016.52
2017-11-14T04:26:20.725Z,1016.5
2017-11-14T04:26:46.866Z,1016.48
2017-11-14T04:27:13.016Z,1016.48
2017-11-14T04:27:39.169Z,1016.49
2017-11-14T04:28:05.325Z,1016.49
2017-11-14T04:28:31.462Z,1016.49
2017-11-14T04:28:57.606Z,1016.53
2017-11-14T04:29:23.770Z,1016.48
2017-11-14T04:29:49.913Z,1016.47
2017-11-14T04:30:16.055Z,1016.47
2017-11-14T04:30:42.194Z,1016.53
2017-11-14T04:31:08.340Z,1016.49
2017-11-14T04:31:34.509Z,1016.51
2017-11-14T04:32:00.654Z,1016.48
2017-11-14T04:32:26.823Z,1016.49
2017-11-14T04:32:52.957Z,1016.43
2017-11-14T04:33:19.105Z,1016.45
2017-11-14T04:33:45.244Z,1016.47
2017-11-14T04:34:11.392Z,1016.47
2017-11-14T04:34:37.535Z,1016.46
2017-11-14T04:35:03.674Z,1016.42
2017-11-14T04:35:29.823Z,1016.4
2017-11-14T04:35:55.960Z,1016.42
2017-11-14T04:36:22.113Z,1016.43
2017-11-14T04:36:48.269Z,1016.41
2017-11-14T04:37:14.393Z,1016.39
2017-11-14T04:37:40.538Z,1016.36
2017-11-14T04:38:06.684Z,1016.4
2017-11-14T04:38:32.824Z,1016.44
2017-11-14T04:38:58.969Z,1016.34
2017-11-14T04:39:25.118Z,1016.42
2017-11-14T04:39:51.256Z,1016.43
2017-11-14T04:40:17.395Z,1016.38
2017-11-14T04:40:43.546Z,1016.4
2017-11-14T04:41:09.683Z,1016.42
2017-11-14T04:41:35.835Z,1016.43
2017-11-14T04:42:01.964Z,1016.44
2017-11-14T04:42:28.112Z,1016.48
2017-11-14T04:42:54.248Z,1016.46
2017-11-14T04:43:20.400Z,1016.43
2017-11-14T04:43:46.540Z,1016.47
2017-11-14T04:44:12.685Z,1016.46
2017-11-14T04:44:38.823Z,1016.46
2017-11-14T04:45:04.967Z,1016.43
2017-11-14T04:45:31.147Z,1016.44
2017-11-14T04:45:57.283Z,1016.48
2017-11-14T04:46:23.445Z,1016.44
2017-11-14T04:46:49.565Z,1016.45
2017-11-14T04:47:15.712Z,1016.45
2017-11-14T04:47:41.856Z,1016.44
2017-11-14T04:48:07.999Z,1016.43
2017-11-14T04:48:34.140Z,1016.44
2017-11-14T04:49:00.292Z,1016.41
2017-11-14T04:49:26.430Z,1016.41
2017-11-14T04:49:52.571Z,1016.43
2017-11-14T04:50:18.718Z,1016.37
2017-11-14T04:50:44.888Z,1016.39
2017-11-14T04:51:11.031Z,1016.38
2017-11-14T04:51:37.176Z,1016.34
2017-11-14T04:52:03.309Z,1016.36
2017-11-14T04:52:29.461Z,1016.35
2017-11-14T04:52:55.606Z,1016.34
2017-11-14T04:53:21.744Z,1016.31
2017-11-14T04:53:47.893Z,1016.31
2017-11-14T04:54:14.059Z,1016.39
2017-11-14T04:54:40.202Z,1016.31
2017-11-14T04:55:06.344Z,1016.29
2017-11-14T04:55:32.491Z,1016.31
2017-11-14T04:55:58.625Z,1016.31
2017-11-14T04:56:24.769Z,1016.3
2017-11-14T04:56:50.916Z,1016.3
2017-11-14T04:57:17.058Z,1016.31
2017-11-14T04:57:43.200Z,1016.3
2017-11-14T04:58:09.340Z,1016.26
2017-11-14T04:58:35.488Z,1016.28
2017-11-14T04:59:01.637Z,1016.28
2017-11-14T04:59:27.772Z,1016.27
2017-11-14T04:59:53.918Z,1016.28
2017-11-14T05:00:20.061Z,1016.27
2017-11-14T05:00:46.205Z,1016.28
2017-11-14T05:01:12.349Z,1016.27
2017-11-14T05:01:38.485Z,1016.35
2017-11-14T05:02:04.632Z,1016.34
2017-11-14T05:02:30.770Z,1016.28
2017-11-14T05:02:56.924Z,1016.27
2017-11-14T05:03:23.062Z,1016.27
2017-11-14T05:03:49.210Z,1016.26
2017-11-14T05:04:15.344Z,1016.25
2017-11-14T05:04:41.488Z,1016.3
2017-11-14T05:05:07.661Z,1016.29
2017-11-14T05:05:33.802Z,1016.27
2017-11-14T05:05:59.954Z,1016.25
2017-11-14T05:06:26.086Z,1016.22
2017-11-14T05:06:52.229Z,1016.23
2017-11-14T05:07:18.372Z,1016.26
2017-11-14T05:07:44.519Z,1016.23
2017-11-14T05:08:10.657Z,1016.25
2017-11-14T05:08:36.800Z,1016.19
2017-11-14T05:09:02.967Z,1016.26
2017-11-14T05:09:29.112Z,1016.27
2017-11-14T05:09:55.252Z,1016.2
2017-11-14T05:10:21.398Z,1016.22
2017-11-14T05:10:47.539Z,1016.21
2017-11-14T05:11:13.675Z,1016.22
2017-11-14T05:11:39.849Z,1016.22
2017-11-14T05:12:05.987Z,1016.17
2017-11-14T05:12:32.166Z,1016.24
2017-11-14T05:12:58.308Z,1016.25
2017-11-14T05:13:24.447Z,1016.22
2017-11-14T05:13:50.595Z,1016.27
2017-11-14T05:14:16.734Z,1016.25
2017-11-14T05:14:42.873Z,1016.25
2017-11-14T05:15:09.021Z,1016.23
2017-11-14T05:15:35.168Z,1016.28
2017-11-14T05:16:01.309Z,1016.27
2017-11-14T05:16:27.450Z,1016.3
2017-11-14T05:16:53.597Z,1016.27
2017-11-14T05:17:19.740Z,1016.26